createdAt,value
2023-01-27T00:00:05.609Z,600.2
2023-01-27T00:01:08.114Z,600.1
2023-01-27T00:02:10.810Z,600.3
2023-01-27T00:03:13.425Z,600.3
2023-01-27T00:04:15.921Z,600.4
2023-01-27T00:05:18.443Z,600.2
2023-01-27T00:06:20.725Z,599.9
2023-01-27T00:07:22.988Z,600.1
2023-01-27T00:08:25.220Z,600
2023-01-27T00:09:27.422Z,599.5
2023-01-27T00:10:29.916Z,599.8
2023-01-27T00:11:32.449Z,599.3
2023-01-27T00:12:34.678Z,599.7
2023-01-27T00:13:37.209Z,599.9
2023-01-27T00:14:39.444Z,599.9
2023-01-27T00:15:42.504Z,600
2023-01-27T00:16:45.040Z,599.5
2023-01-27T00:17:47.270Z,599.5
2023-01-27T00:18:49.851Z,599.7
2023-01-27T00:19:51.810Z,599.6
2023-01-27T00:20:54.126Z,599.7
2023-01-27T00:21:56.728Z,599.5
2023-01-27T00:22:58.962Z,599.4
2023-01-27T00:24:01.789Z,599.9
2023-01-27T00:25:04.385Z,599.6
2023-01-27T00:26:06.878Z,599.9
2023-01-27T00:27:08.889Z,599.5
2023-01-27T00:28:11.473Z,599.6
2023-01-27T00:29:13.417Z,599.6
2023-01-27T00:30:16.381Z,599.8
2023-01-27T00:31:19.507Z,600.3
2023-01-27T00:32:22.030Z,599.8
2023-01-27T00:33:24.522Z,600.3
2023-01-27T00:34:27.025Z,599.9
2023-01-27T00:35:29.517Z,600.1
2023-01-27T00:36:32.122Z,600.6
2023-01-27T00:37:34.680Z,600.9
2023-01-27T00:38:37.157Z,600.9
2023-01-27T00:39:39.395Z,601.1
2023-01-27T00:40:41.902Z,600.4
2023-01-27T00:41:44.409Z,600.7
2023-01-27T00:42:46.925Z,600.5
2023-01-27T00:43:49.502Z,600.9
2023-01-27T00:44:51.730Z,600.6
2023-01-27T00:45:54.235Z,601.3
2023-01-27T00:46:57.037Z,600.9
2023-01-27T00:47:59.264Z,600.5
2023-01-27T00:49:01.556Z,600.8
2023-01-27T00:50:03.784Z,600.7
2023-01-27T00:51:06.036Z,600.8
2023-01-27T00:52:08.290Z,600.8
2023-01-27T00:53:10.804Z,600.5
2023-01-27T00:54:13.064Z,600.6
2023-01-27T00:55:15.288Z,600.6
2023-01-27T00:56:17.786Z,600.4
2023-01-27T00:57:20.283Z,600.4
2023-01-27T00:58:22.796Z,600.3
2023-01-27T00:59:25.287Z,600.2
2023-01-27T01:00:27.803Z,600.3
2023-01-27T01:01:29.896Z,600
2023-01-27T01:02:32.623Z,599.9
2023-01-27T01:03:34.936Z,600
2023-01-27T01:04:37.183Z,599.6
2023-01-27T01:05:39.390Z,600.1
2023-01-27T01:06:41.900Z,599.7
2023-01-27T01:07:44.136Z,599.4
2023-01-27T01:08:46.765Z,599.4
2023-01-27T01:09:49.309Z,599.4
2023-01-27T01:10:51.288Z,599.2
2023-01-27T01:11:53.498Z,599.4
2023-01-27T01:12:56.020Z,599.1
2023-01-27T01:13:58.944Z,599
2023-01-27T01:15:00.911Z,599.2
2023-01-27T01:16:03.675Z,598.9
2023-01-27T01:17:05.662Z,599.1
2023-01-27T01:18:08.236Z,599.1
2023-01-27T01:19:10.750Z,599
2023-01-27T01:20:14.993Z,599.4
2023-01-27T01:21:17.305Z,598.9
2023-01-27T01:22:19.837Z,599.3
2023-01-27T01:23:22.324Z,599.3
2023-01-27T01:24:24.916Z,599.1
2023-01-27T01:25:27.158Z,599
2023-01-27T01:26:29.677Z,598.8
2023-01-27T01:27:32.189Z,599.1
2023-01-27T01:28:34.714Z,598.7
2023-01-27T01:29:37.374Z,598.6
2023-01-27T01:30:39.810Z,598.9
2023-01-27T01:31:42.678Z,598.7
2023-01-27T01:32:44.947Z,598.9
2023-01-27T01:33:47.584Z,599
2023-01-27T01:34:49.797Z,598.8
2023-01-27T01:35:52.317Z,599.2
2023-01-27T01:36:54.821Z,599.3
2023-01-27T01:37:57.050Z,599.5
2023-01-27T01:38:59.404Z,599.4
2023-01-27T01:40:01.973Z,598.4
2023-01-27T01:41:04.248Z,598.9
2023-01-27T01:42:06.744Z,598.7
2023-01-27T01:43:09.265Z,598.8
2023-01-27T01:44:11.199Z,598.8
2023-01-27T01:45:13.710Z,599.5
2023-01-27T01:46:16.635Z,599.3
2023-01-27T01:47:19.188Z,599.8
2023-01-27T01:48:21.400Z,599.4
2023-01-27T01:49:24.016Z,599.7
2023-01-27T01:50:26.528Z,599.9
2023-01-27T01:51:28.759Z,600.7
2023-01-27T01:52:31.252Z,600.9
2023-01-27T01:53:33.769Z,600.9
2023-01-27T01:54:36.290Z,601
2023-01-27T01:55:38.815Z,601.5
2023-01-27T01:56:40.760Z,601.4
2023-01-27T01:57:43.278Z,601.5
2023-01-27T01:58:46.636Z,601.3
2023-01-27T01:59:48.957Z,601.1
2023-01-27T02:00:51.748Z,601.2
2023-01-27T02:01:54.284Z,601.6
2023-01-27T02:02:56.904Z,601.5
2023-01-27T02:03:58.891Z,602
2023-01-27T02:05:01.559Z,601.7
2023-01-27T02:06:03.674Z,602.1
2023-01-27T02:07:06.204Z,602.5
2023-01-27T02:08:08.423Z,602.4
2023-01-27T02:09:10.951Z,602.5
2023-01-27T02:10:15.469Z,602.4
2023-01-27T02:11:18.071Z,602.1
2023-01-27T02:12:20.566Z,601.9
2023-01-27T02:13:22.840Z,601.8
2023-01-27T02:14:25.334Z,601.5
2023-01-27T02:15:27.676Z,601.5
2023-01-27T02:16:30.476Z,600.8
2023-01-27T02:17:32.742Z,600.4
2023-01-27T02:18:34.673Z,600.2
2023-01-27T02:19:37.175Z,600.1
2023-01-27T02:20:39.796Z,600.5
2023-01-27T02:21:42.396Z,600.1
2023-01-27T02:22:44.929Z,600.1
2023-01-27T02:23:47.271Z,599.6
2023-01-27T02:24:49.881Z,599.7
2023-01-27T02:25:52.453Z,599.7
2023-01-27T02:26:54.402Z,600.1
2023-01-27T02:27:56.902Z,600.7
2023-01-27T02:28:59.477Z,601.4
2023-01-27T02:30:02.045Z,601.4
2023-01-27T02:31:05.089Z,601.3
2023-01-27T02:32:07.393Z,601.4
2023-01-27T02:33:09.603Z,601.5
2023-01-27T02:34:11.820Z,601.3
2023-01-27T02:35:16.000Z,601.2
2023-01-27T02:36:19.046Z,601.4
2023-01-27T02:37:21.552Z,601.2
2023-01-27T02:38:24.121Z,601.4
2023-01-27T02:39:26.404Z,601.3
2023-01-27T02:40:28.670Z,601.2
2023-01-27T02:41:31.251Z,600.9
2023-01-27T02:42:33.484Z,601
2023-01-27T02:43:36.007Z,601.3
2023-01-27T02:44:38.453Z,600.8
2023-01-27T02:45:40.992Z,600.8
2023-01-27T02:46:43.234Z,601.1
2023-01-27T02:47:45.731Z,601.3
2023-01-27T02:48:48.335Z,601.7
2023-01-27T02:49:50.862Z,601.4
2023-01-27T02:50:53.369Z,601.4
2023-01-27T02:51:56.007Z,601.7
2023-01-27T02:52:58.606Z,601.7
2023-01-27T02:54:01.140Z,601.6
2023-01-27T02:55:03.616Z,601.3
2023-01-27T02:56:05.844Z,601.5
2023-01-27T02:57:08.139Z,601.6
2023-01-27T02:58:10.868Z,601.5
2023-01-27T02:59:13.328Z,601.8
2023-01-27T03:00:15.609Z,601.9
2023-01-27T03:01:18.590Z,601.6
2023-01-27T03:02:21.371Z,601.5
2023-01-27T03:03:23.896Z,601.7
2023-01-27T03:04:26.134Z,601.7
2023-01-27T03:05:28.648Z,601.7
2023-01-27T03:06:31.488Z,602.3
2023-01-27T03:07:33.820Z,602.2
2023-01-27T03:08:36.302Z,602.6
2023-01-27T03:09:38.545Z,602.5
2023-01-27T03:10:41.221Z,602.4
2023-01-27T03:11:43.749Z,602.1
2023-01-27T03:12:46.249Z,602
2023-01-27T03:13:48.967Z,602.1
2023-01-27T03:14:51.464Z,602.1
2023-01-27T03:15:53.860Z,602.4
2023-01-27T03:16:56.440Z,602.6
2023-01-27T03:17:58.694Z,602.5
2023-01-27T03:19:00.639Z,602
2023-01-27T03:20:03.197Z,601.7
2023-01-27T03:21:05.334Z,601.2
2023-01-27T03:22:07.838Z,601.4
2023-01-27T03:23:10.247Z,601.5
2023-01-27T03:24:12.715Z,601.4
2023-01-27T03:25:16.998Z,602.1
2023-01-27T03:26:19.488Z,601.5
2023-01-27T03:27:21.491Z,601.7
2023-01-27T03:28:23.834Z,601.5
2023-01-27T03:29:26.121Z,601.5
2023-01-27T03:30:28.342Z,601.8
2023-01-27T03:31:31.573Z,601.9
2023-01-27T03:32:34.115Z,602
2023-01-27T03:33:36.351Z,602
2023-01-27T03:34:38.876Z,602.2
2023-01-27T03:35:42.527Z,602
2023-01-27T03:36:45.242Z,601.9
2023-01-27T03:37:47.733Z,602.1
2023-01-27T03:38:50.994Z,602.3
2023-01-27T03:39:53.828Z,602.3
2023-01-27T03:40:56.331Z,602.1
2023-01-27T03:41:58.879Z,602.3
2023-01-27T03:43:01.127Z,602.5
2023-01-27T03:44:03.630Z,602.2
2023-01-27T03:45:06.227Z,602.2
2023-01-27T03:46:08.870Z,602.1
2023-01-27T03:47:11.097Z,602.1
2023-01-27T03:48:13.589Z,602.5
2023-01-27T03:49:16.110Z,602.7
2023-01-27T03:50:18.404Z,602.1
2023-01-27T03:51:20.912Z,602.5
2023-01-27T03:52:23.411Z,602.6
2023-01-27T03:53:25.906Z,602.7
2023-01-27T03:54:28.228Z,602.4
2023-01-27T03:55:30.713Z,602.3
2023-01-27T03:56:33.191Z,602
2023-01-27T03:57:35.330Z,602.2
2023-01-27T03:58:38.599Z,602.6
2023-01-27T03:59:40.996Z,603
2023-01-27T04:00:43.347Z,602.8
2023-01-27T04:01:46.688Z,602.8
2023-01-27T04:02:49.744Z,602.5
2023-01-27T04:03:52.008Z,602.1
2023-01-27T04:04:54.018Z,602.4
2023-01-27T04:05:56.580Z,602.3
2023-01-27T04:06:59.185Z,602.4
2023-01-27T04:08:01.419Z,602
2023-01-27T04:09:04.060Z,602
2023-01-27T04:10:06.797Z,601.7
2023-01-27T04:11:09.285Z,602
2023-01-27T04:12:11.521Z,601.9
2023-01-27T04:13:14.013Z,601.9
2023-01-27T04:14:16.512Z,601.5
2023-01-27T04:15:18.743Z,601.6
2023-01-27T04:16:21.307Z,601.6
2023-01-27T04:17:23.815Z,601.7
2023-01-27T04:18:26.323Z,602
2023-01-27T04:19:28.895Z,602.3
2023-01-27T04:20:31.406Z,602
2023-01-27T04:21:33.358Z,602.3
2023-01-27T04:22:35.332Z,602.3
2023-01-27T04:23:37.817Z,602.3
2023-01-27T04:24:40.334Z,602.7
2023-01-27T04:25:42.981Z,602.3
2023-01-27T04:26:45.218Z,602.5
2023-01-27T04:27:47.763Z,602.2
2023-01-27T04:28:50.250Z,602.4
2023-01-27T04:29:52.799Z,602.5
2023-01-27T04:30:55.227Z,603
2023-01-27T04:31:58.174Z,602.6
2023-01-27T04:33:01.506Z,602.1
2023-01-27T04:34:04.211Z,602.3
2023-01-27T04:35:06.462Z,602.3
2023-01-27T04:36:09.330Z,602.4
2023-01-27T04:37:11.722Z,602.3
2023-01-27T04:38:15.650Z,602.3
2023-01-27T04:39:17.941Z,602.7
2023-01-27T04:40:20.426Z,602.1
2023-01-27T04:41:23.021Z,602.4
2023-01-27T04:42:25.533Z,602.4
2023-01-27T04:43:28.130Z,602.1
2023-01-27T04:44:30.378Z,602.1
2023-01-27T04:45:33.090Z,602.3
2023-01-27T04:46:35.582Z,602
2023-01-27T04:47:37.817Z,602.3
2023-01-27T04:48:40.046Z,602.2
2023-01-27T04:49:42.371Z,602.1
2023-01-27T04:50:44.869Z,602
2023-01-27T04:51:49.157Z,601.9
2023-01-27T04:52:51.854Z,601.9
2023-01-27T04:53:53.828Z,602.1
2023-01-27T04:54:56.333Z,602
2023-01-27T04:55:58.559Z,601.9
2023-01-27T04:57:01.480Z,601.9
2023-01-27T04:58:04.009Z,601.5
2023-01-27T04:59:06.713Z,602
2023-01-27T05:00:08.399Z,602.2
2023-01-27T05:01:10.909Z,602
2023-01-27T05:02:13.575Z,601.9
2023-01-27T05:03:16.619Z,602
2023-01-27T05:04:19.142Z,602.4
2023-01-27T05:05:21.650Z,601.5
2023-01-27T05:06:24.192Z,601.2
2023-01-27T05:07:26.710Z,601.5
2023-01-27T05:08:28.946Z,601.4
2023-01-27T05:09:31.455Z,601.5
2023-01-27T05:10:33.656Z,601.8
2023-01-27T05:11:36.173Z,601.7
2023-01-27T05:12:38.780Z,601.7
2023-01-27T05:13:41.286Z,601.6
2023-01-27T05:14:43.745Z,601.8
2023-01-27T05:15:46.709Z,601.4
2023-01-27T05:16:49.479Z,601.3
2023-01-27T05:17:52.031Z,601.5
2023-01-27T05:18:54.330Z,601.8
2023-01-27T05:19:56.850Z,601.8
2023-01-27T05:20:59.523Z,601.7
2023-01-27T05:22:01.519Z,601.4
2023-01-27T05:23:03.760Z,602.1
2023-01-27T05:24:06.321Z,602.1
2023-01-27T05:25:09.670Z,601.6
2023-01-27T05:26:12.444Z,601.5
2023-01-27T05:27:14.669Z,601
2023-01-27T05:28:17.295Z,601.2
2023-01-27T05:29:19.777Z,600.9
2023-01-27T05:30:22.262Z,600.9
2023-01-27T05:31:25.342Z,600.9
2023-01-27T05:32:27.640Z,600.8
2023-01-27T05:33:29.914Z,600.6
2023-01-27T05:34:32.176Z,600.1
2023-01-27T05:35:34.710Z,600.7
2023-01-27T05:36:36.719Z,600.5
2023-01-27T05:37:38.950Z,600.3
2023-01-27T05:38:41.177Z,600.4
2023-01-27T05:39:43.664Z,600.2
2023-01-27T05:40:46.184Z,600
2023-01-27T05:41:48.701Z,599.2
2023-01-27T05:42:50.915Z,599.3
2023-01-27T05:43:53.218Z,599.5
2023-01-27T05:44:55.439Z,599.3
2023-01-27T05:45:57.949Z,599.4
2023-01-27T05:47:00.473Z,599.1
2023-01-27T05:48:03.100Z,598.8
2023-01-27T05:49:05.795Z,599.5
2023-01-27T05:50:07.789Z,599.1
2023-01-27T05:51:10.618Z,599.1
2023-01-27T05:52:13.814Z,599
2023-01-27T05:53:16.065Z,598.4
2023-01-27T05:54:18.637Z,598.7
2023-01-27T05:55:21.138Z,598.9
2023-01-27T05:56:23.695Z,599.1
2023-01-27T05:57:26.074Z,598.7
2023-01-27T05:58:28.314Z,598.4
2023-01-27T05:59:30.346Z,598.6
2023-01-27T06:00:32.862Z,598.6
2023-01-27T06:01:35.554Z,598.7
2023-01-27T06:02:37.855Z,598.6
2023-01-27T06:03:39.859Z,598.6
2023-01-27T06:04:42.345Z,598.4
2023-01-27T06:05:44.577Z,597.8
2023-01-27T06:06:47.057Z,598
2023-01-27T06:07:49.101Z,597.9
2023-01-27T06:08:51.435Z,598.3
2023-01-27T06:09:53.953Z,597.9
2023-01-27T06:10:56.534Z,597.8
2023-01-27T06:11:58.766Z,597.9
2023-01-27T06:13:01.328Z,597.5
2023-01-27T06:14:03.365Z,597.7
2023-01-27T06:15:05.968Z,597.1
2023-01-27T06:16:08.303Z,597.1
2023-01-27T06:17:10.818Z,597.2
2023-01-27T06:18:13.226Z,596.6
2023-01-27T06:19:15.784Z,597.1
2023-01-27T06:20:18.019Z,596.8
2023-01-27T06:21:20.742Z,596.7
2023-01-27T06:22:23.250Z,596.7
2023-01-27T06:23:25.745Z,596.7
2023-01-27T06:24:28.464Z,597
2023-01-27T06:25:31.018Z,597.1
2023-01-27T06:26:33.268Z,597.2
2023-01-27T06:27:35.517Z,596.8
2023-01-27T06:28:37.949Z,596.8
2023-01-27T06:29:40.218Z,596.7
2023-01-27T06:30:42.839Z,596.6
2023-01-27T06:31:45.931Z,596.6
2023-01-27T06:32:48.463Z,596.9
2023-01-27T06:33:50.973Z,596.4
2023-01-27T06:34:52.950Z,596.6
2023-01-27T06:35:55.723Z,596.6
2023-01-27T06:36:58.248Z,596
2023-01-27T06:38:00.768Z,595.9
2023-01-27T06:39:03.276Z,596.2
2023-01-27T06:40:05.544Z,596.4
2023-01-27T06:41:07.587Z,595.7
2023-01-27T06:42:09.813Z,595.9
2023-01-27T06:43:12.050Z,596.2
2023-01-27T06:44:14.546Z,596
2023-01-27T06:45:17.049Z,595.4
2023-01-27T06:46:20.018Z,595.7
2023-01-27T06:47:21.719Z,595.9
2023-01-27T06:48:23.937Z,595.7
2023-01-27T06:49:26.663Z,595.2
2023-01-27T06:50:29.169Z,595
2023-01-27T06:51:31.408Z,595.2
2023-01-27T06:52:33.213Z,594.7
2023-01-27T06:53:36.097Z,594.2
2023-01-27T06:54:38.820Z,593.7
2023-01-27T06:55:41.340Z,593.3
2023-01-27T06:56:44.056Z,593.1
2023-01-27T06:57:46.553Z,593.3
2023-01-27T06:58:49.095Z,593.1
2023-01-27T06:59:51.625Z,593
2023-01-27T07:00:53.924Z,593
2023-01-27T07:01:56.238Z,593
2023-01-27T07:02:59.261Z,593.1
2023-01-27T07:04:01.584Z,593.3
2023-01-27T07:05:03.879Z,593.2
2023-01-27T07:06:05.851Z,593.2
2023-01-27T07:07:08.209Z,592.9
2023-01-27T07:08:10.811Z,593.3
2023-01-27T07:09:13.040Z,592.9
2023-01-27T07:10:17.410Z,593.3
2023-01-27T07:11:19.639Z,593.9
2023-01-27T07:12:22.127Z,593.5
2023-01-27T07:13:24.107Z,593.6
2023-01-27T07:14:26.429Z,593.5
2023-01-27T07:15:28.641Z,593.3
2023-01-27T07:16:30.957Z,593.3
2023-01-27T07:17:34.074Z,593.2
2023-01-27T07:18:36.815Z,593.2
2023-01-27T07:19:39.053Z,593
2023-01-27T07:20:41.972Z,593.4
2023-01-27T07:21:44.403Z,593.2
2023-01-27T07:22:46.814Z,593.1
2023-01-27T07:23:50.100Z,593.2
2023-01-27T07:24:52.852Z,593.1
2023-01-27T07:25:55.084Z,592.9
2023-01-27T07:26:57.351Z,592.8
2023-01-27T07:27:59.901Z,593.1
2023-01-27T07:29:02.461Z,593.2
2023-01-27T07:30:05.026Z,593
2023-01-27T07:31:08.365Z,593.4
2023-01-27T07:32:11.025Z,593.1
2023-01-27T07:33:13.666Z,593.3
2023-01-27T07:34:16.093Z,593.2
2023-01-27T07:35:18.551Z,594.3
2023-01-27T07:36:20.996Z,594.3
2023-01-27T07:37:23.631Z,594
2023-01-27T07:38:25.859Z,594.3
2023-01-27T07:39:28.395Z,594.1
2023-01-27T07:40:30.650Z,594.1
2023-01-27T07:41:33.184Z,594.4
2023-01-27T07:42:35.727Z,594.3
2023-01-27T07:43:38.265Z,593.9
2023-01-27T07:44:40.501Z,594
2023-01-27T07:45:43.369Z,594.3
2023-01-27T07:46:45.940Z,593.8
2023-01-27T07:47:48.442Z,594.3
2023-01-27T07:48:50.506Z,593.5
2023-01-27T07:49:52.733Z,593.8
2023-01-27T07:50:54.422Z,593.7
2023-01-27T07:51:56.972Z,593.5
2023-01-27T07:52:59.510Z,593.6
2023-01-27T07:54:03.785Z,593.5
2023-01-27T07:55:06.055Z,593.6
2023-01-27T07:56:08.355Z,593.9
2023-01-27T07:57:10.055Z,594.3
2023-01-27T07:58:12.300Z,594.2
2023-01-27T07:59:13.981Z,594.2
2023-01-27T08:00:17.042Z,593.9
2023-01-27T08:01:19.563Z,594.2
2023-01-27T08:02:21.839Z,594.2
2023-01-27T08:03:24.560Z,593.7
2023-01-27T08:04:27.204Z,593.7
2023-01-27T08:05:29.458Z,593.8
2023-01-27T08:06:31.678Z,594.3
2023-01-27T08:07:33.655Z,594.1
2023-01-27T08:08:39.186Z,594.3
2023-01-27T08:09:41.416Z,594.6
2023-01-27T08:10:43.685Z,594.1
2023-01-27T08:11:46.222Z,594.2
2023-01-27T08:12:48.663Z,594
2023-01-27T08:13:51.281Z,594
2023-01-27T08:14:53.231Z,593.7
2023-01-27T08:15:55.464Z,594.1
2023-01-27T08:16:57.440Z,594
2023-01-27T08:18:00.048Z,594
2023-01-27T08:19:02.300Z,593.8
2023-01-27T08:20:04.920Z,593.9
2023-01-27T08:21:07.435Z,593.5
2023-01-27T08:22:09.958Z,593.6
2023-01-27T08:23:12.484Z,593.4
2023-01-27T08:24:15.344Z,593.6
2023-01-27T08:25:17.397Z,593.7
2023-01-27T08:26:19.941Z,593.9
2023-01-27T08:27:22.444Z,593.5
2023-01-27T08:28:24.957Z,593.4
2023-01-27T08:29:27.228Z,593.2
2023-01-27T08:30:29.941Z,593
2023-01-27T08:31:32.601Z,593.1
2023-01-27T08:32:35.147Z,592.8
2023-01-27T08:33:37.462Z,592.8
2023-01-27T08:34:39.971Z,592.1
2023-01-27T08:35:42.259Z,592.8
2023-01-27T08:36:44.776Z,592.6
2023-01-27T08:38:52.279Z,593.3
2023-01-27T08:39:54.793Z,592.7
2023-01-27T08:40:57.042Z,592.1
2023-01-27T08:41:59.581Z,592.2
2023-01-27T08:44:08.309Z,592.7
2023-01-27T08:45:10.308Z,592.4
2023-01-27T08:46:13.492Z,592.1
2023-01-27T08:47:15.461Z,591.9
2023-01-27T08:48:17.393Z,592.1
2023-01-27T08:49:19.614Z,592.2
2023-01-27T08:50:21.565Z,591.5
2023-01-27T08:51:24.062Z,591.4
2023-01-27T08:52:26.315Z,591.5
2023-01-27T08:53:29.749Z,591.4
2023-01-27T08:54:32.318Z,591.3
2023-01-27T08:55:34.877Z,590.3
2023-01-27T08:56:37.387Z,590.5
2023-01-27T08:57:39.954Z,590.2
2023-01-27T08:58:42.493Z,590
2023-01-27T08:59:45.000Z,590.3
2023-01-27T09:00:47.503Z,590.4
2023-01-27T09:01:49.721Z,590.4
2023-01-27T09:02:52.220Z,590.4
2023-01-27T09:03:54.772Z,590.1
2023-01-27T09:04:57.564Z,590.2
2023-01-27T09:06:00.107Z,590.4
2023-01-27T09:07:02.474Z,590.4
2023-01-27T09:08:04.994Z,590.5
2023-01-27T09:11:18.761Z,590.1
2023-01-27T09:12:21.281Z,590.4
2023-01-27T09:13:23.975Z,590.4
2023-01-27T09:14:26.494Z,590.1
2023-01-27T09:15:29.053Z,590.2
2023-01-27T09:16:32.046Z,589.8
2023-01-27T09:17:34.581Z,589.7
2023-01-27T09:18:37.130Z,590
2023-01-27T09:19:39.420Z,589.9
2023-01-27T09:20:41.712Z,590.2
2023-01-27T09:21:44.247Z,590.4
2023-01-27T09:22:46.980Z,590.3
2023-01-27T09:23:49.516Z,590.4
2023-01-27T09:24:51.768Z,590.2
2023-01-27T09:25:54.009Z,590.3
2023-01-27T09:26:56.814Z,590.2
2023-01-27T09:27:59.071Z,589.6
2023-01-27T09:29:01.616Z,589.5
2023-01-27T09:30:03.870Z,589.4
2023-01-27T09:31:06.709Z,589
2023-01-27T09:32:10.059Z,589.4
2023-01-27T09:33:12.569Z,589.2
2023-01-27T09:34:16.033Z,588.9
2023-01-27T09:35:18.594Z,588.9
2023-01-27T09:36:20.880Z,588.9
2023-01-27T09:37:22.841Z,588.7
2023-01-27T09:38:25.513Z,588.6
2023-01-27T09:39:28.103Z,588.5
2023-01-27T09:40:30.433Z,588.7
2023-01-27T09:41:32.467Z,588.6
2023-01-27T09:42:34.974Z,588.6
2023-01-27T09:43:37.220Z,588.7
2023-01-27T09:44:39.804Z,588.5
2023-01-27T09:45:42.319Z,588.9
2023-01-27T09:46:44.584Z,588.9
2023-01-27T09:47:47.109Z,589.1
2023-01-27T09:48:49.364Z,588.6
2023-01-27T09:49:51.920Z,589.2
2023-01-27T09:50:53.975Z,589.3
2023-01-27T09:51:55.659Z,588.7
2023-01-27T09:52:57.883Z,588.9
2023-01-27T09:54:00.500Z,588.8
2023-01-27T09:55:02.760Z,588.7
2023-01-27T09:56:05.019Z,589
2023-01-27T09:57:07.600Z,589.4
2023-01-27T09:58:10.138Z,589.1
2023-01-27T09:59:12.345Z,589.1
2023-01-27T10:00:16.583Z,589
2023-01-27T10:01:19.725Z,589
2023-01-27T10:02:21.990Z,589.2
2023-01-27T10:03:24.508Z,589.6
2023-01-27T10:04:27.058Z,589.5
2023-01-27T10:05:29.361Z,589.9
2023-01-27T10:06:35.334Z,590
2023-01-27T10:07:37.978Z,589.8
2023-01-27T10:08:40.521Z,589.6
2023-01-27T10:09:43.121Z,590
2023-01-27T10:10:45.362Z,589.7
2023-01-27T10:11:47.641Z,589.5
2023-01-27T10:12:49.606Z,588.9
2023-01-27T10:13:52.121Z,589
2023-01-27T10:14:54.652Z,588.9
2023-01-27T10:15:57.417Z,589.1
2023-01-27T10:16:59.962Z,589.1
2023-01-27T10:18:02.521Z,588.9
2023-01-27T10:19:04.761Z,588.6
2023-01-27T10:20:07.081Z,588.8
2023-01-27T10:21:09.586Z,588.6
2023-01-27T10:22:12.120Z,589.2
2023-01-27T10:23:14.353Z,588.9
2023-01-27T10:24:17.278Z,589
2023-01-27T10:25:19.913Z,589.2
2023-01-27T10:26:22.203Z,588.3
2023-01-27T10:27:24.151Z,588.5
2023-01-27T10:28:26.680Z,588.5
2023-01-27T10:29:28.645Z,588.9
2023-01-27T10:30:31.177Z,589.1
2023-01-27T10:31:33.695Z,589
2023-01-27T10:32:35.958Z,588.8
2023-01-27T10:33:38.192Z,589
2023-01-27T10:34:40.715Z,588.6
2023-01-27T10:35:42.679Z,588.5
2023-01-27T10:36:45.210Z,588.2
2023-01-27T10:37:47.442Z,588.5
2023-01-27T10:38:50.157Z,588.4
2023-01-27T10:39:52.387Z,588.5
2023-01-27T10:40:54.982Z,588.5
2023-01-27T10:41:57.494Z,588.4
2023-01-27T10:42:59.736Z,588.1
2023-01-27T10:44:02.263Z,587.9
2023-01-27T10:45:04.811Z,587.9
2023-01-27T10:46:07.685Z,587.8
2023-01-27T10:47:10.245Z,587.8
2023-01-27T10:48:12.758Z,587.8
2023-01-27T10:49:15.274Z,587.6
2023-01-27T10:50:18.002Z,587.6
2023-01-27T10:51:20.239Z,587.3
2023-01-27T10:52:22.766Z,587.5
2023-01-27T10:53:25.024Z,587.3
2023-01-27T10:54:27.623Z,587.8
2023-01-27T10:55:30.174Z,587.8
2023-01-27T10:56:32.181Z,587.8
2023-01-27T10:57:34.702Z,588
2023-01-27T10:58:37.199Z,587.8
2023-01-27T10:59:39.443Z,588.3
2023-01-27T11:01:46.721Z,587.5
2023-01-27T11:02:49.364Z,587.7
2023-01-27T11:03:52.254Z,587.5
2023-01-27T11:04:54.504Z,587.4
2023-01-27T11:05:57.015Z,587.6
2023-01-27T11:06:59.551Z,588
2023-01-27T11:08:02.104Z,587.8
2023-01-27T11:09:04.351Z,588.2
2023-01-27T11:10:06.666Z,588.1
2023-01-27T11:11:09.193Z,588.5
2023-01-27T11:12:11.541Z,587.7
2023-01-27T11:13:14.052Z,588.3
2023-01-27T11:14:16.609Z,588.4
2023-01-27T11:15:18.570Z,588.5
2023-01-27T11:16:21.098Z,588.2
2023-01-27T11:17:23.383Z,588.4
2023-01-27T11:18:25.660Z,588.4
2023-01-27T11:19:28.191Z,588.4
2023-01-27T11:20:30.437Z,588.5
2023-01-27T11:21:32.692Z,588.4
2023-01-27T11:22:35.243Z,588.2
2023-01-27T11:23:37.739Z,588.4
2023-01-27T11:24:40.026Z,588.3
2023-01-27T11:25:42.531Z,588.4
2023-01-27T11:26:45.052Z,588.9
2023-01-27T11:27:47.649Z,589.4
2023-01-27T11:28:50.162Z,589.7
2023-01-27T11:29:52.805Z,589.8
2023-01-27T11:30:55.479Z,589.1
2023-01-27T11:31:58.039Z,589.5
2023-01-27T11:33:00.393Z,589.3
2023-01-27T11:34:03.005Z,588.8
2023-01-27T11:35:04.962Z,588.5
2023-01-27T11:36:07.501Z,588.7
2023-01-27T11:37:10.004Z,588.7
2023-01-27T11:39:17.531Z,589.2
2023-01-27T11:40:20.104Z,589
2023-01-27T11:41:22.078Z,589
2023-01-27T11:42:24.067Z,588.9
2023-01-27T11:43:26.387Z,588.8
2023-01-27T11:44:28.618Z,589.4
2023-01-27T11:45:30.834Z,589.1
2023-01-27T11:46:33.069Z,589.3
2023-01-27T11:47:35.596Z,588.9
2023-01-27T11:48:37.668Z,589.3
2023-01-27T11:49:40.294Z,589.4
2023-01-27T11:50:42.817Z,589.2
2023-01-27T11:51:45.322Z,589.6
2023-01-27T11:52:47.576Z,589.6
2023-01-27T11:53:49.812Z,589.7
2023-01-27T11:54:52.349Z,589.9
2023-01-27T11:55:54.285Z,589.4
2023-01-27T11:56:56.532Z,589.6
2023-01-27T11:57:58.761Z,590.1
2023-01-27T11:59:01.467Z,589.5
2023-01-27T12:00:03.529Z,589.9
2023-01-27T12:01:05.780Z,589.7
2023-01-27T12:02:08.092Z,589.8
2023-01-27T12:03:10.053Z,589.6
2023-01-27T12:04:12.870Z,590
2023-01-27T12:05:15.150Z,590.4
2023-01-27T12:06:17.387Z,590.1
2023-01-27T12:07:19.646Z,589.9
2023-01-27T12:08:21.910Z,590.3
2023-01-27T12:09:23.851Z,590
2023-01-27T12:10:26.472Z,590.4
2023-01-27T12:11:28.694Z,589.9
2023-01-27T12:12:30.901Z,589.6
2023-01-27T12:13:33.425Z,590.4
2023-01-27T12:14:36.034Z,590.1
2023-01-27T12:15:38.714Z,590
2023-01-27T12:16:40.982Z,590.2
2023-01-27T12:17:43.531Z,590.3
2023-01-27T12:18:45.793Z,590.4
2023-01-27T12:19:48.315Z,590.2
2023-01-27T12:20:50.864Z,590.4
2023-01-27T12:21:53.402Z,590.5
2023-01-27T12:22:56.006Z,590.5
2023-01-27T12:23:58.834Z,590.4
2023-01-27T12:25:01.255Z,590.3
2023-01-27T12:26:03.828Z,590.4
2023-01-27T12:27:06.094Z,590.5
2023-01-27T12:28:08.330Z,590.7
2023-01-27T12:29:10.850Z,590.7
2023-01-27T12:30:15.679Z,590.8
2023-01-27T12:31:18.843Z,590.6
2023-01-27T12:32:21.486Z,590.7
2023-01-27T12:33:24.011Z,590.9
2023-01-27T12:34:26.271Z,591.2
2023-01-27T12:35:28.829Z,590.8
2023-01-27T12:36:32.409Z,590.9
2023-01-27T12:37:34.384Z,591.2
2023-01-27T12:38:36.950Z,590.8
2023-01-27T12:39:39.169Z,590.7
2023-01-27T12:40:41.417Z,591
2023-01-27T12:41:43.637Z,591
2023-01-27T12:42:45.590Z,590.8
2023-01-27T12:43:47.819Z,591.1
2023-01-27T12:44:50.330Z,590.8
2023-01-27T12:45:52.630Z,590.3
2023-01-27T12:46:55.127Z,590.7
2023-01-27T12:47:57.293Z,590.5
2023-01-27T12:48:59.563Z,590.5
2023-01-27T12:50:02.094Z,590.8
2023-01-27T12:51:04.610Z,590.4
2023-01-27T12:52:07.182Z,590.7
2023-01-27T12:53:09.475Z,590.9
2023-01-27T12:54:11.698Z,590.6
2023-01-27T12:55:14.237Z,590.7
2023-01-27T12:56:16.482Z,590.6
2023-01-27T12:57:19.016Z,590.8
2023-01-27T12:58:21.224Z,591
2023-01-27T12:59:23.492Z,590.6
2023-01-27T13:00:26.029Z,590.7
2023-01-27T13:01:28.450Z,591
2023-01-27T13:02:30.992Z,590.9
2023-01-27T13:03:33.704Z,590.9
2023-01-27T13:05:41.211Z,591.6
2023-01-27T13:06:43.898Z,591.8
2023-01-27T13:07:46.204Z,591.8
2023-01-27T13:08:48.444Z,591.5
2023-01-27T13:09:51.008Z,591.5
2023-01-27T13:10:53.306Z,591.6
2023-01-27T13:11:55.872Z,591.6
2023-01-27T13:12:58.398Z,591.7
2023-01-27T13:14:00.122Z,591.8
2023-01-27T13:15:02.467Z,591.7
2023-01-27T13:16:05.220Z,591.4
2023-01-27T13:17:07.866Z,591.9
2023-01-27T13:18:10.129Z,591.9
2023-01-27T13:19:12.695Z,591.7
2023-01-27T13:20:17.010Z,591.7
2023-01-27T13:21:19.327Z,592.1
2023-01-27T13:22:21.596Z,591.8
2023-01-27T13:23:24.177Z,591.9
2023-01-27T13:24:26.944Z,592.2
2023-01-27T13:25:29.446Z,591.6
2023-01-27T13:26:31.663Z,591.7
2023-01-27T13:27:33.903Z,592.5
2023-01-27T13:29:40.853Z,592.2
2023-01-27T13:30:42.973Z,592.3
2023-01-27T13:31:45.994Z,591.9
2023-01-27T13:32:48.327Z,592.3
2023-01-27T13:33:50.829Z,591.8
2023-01-27T13:34:52.821Z,592.2
2023-01-27T13:35:55.059Z,592.3
2023-01-27T13:36:57.610Z,591.8
2023-01-27T13:37:59.305Z,592.4